createdAt,value
2022-08-02T00:00:01.420Z,19.3
2022-08-02T00:01:01.828Z,19.32
2022-08-02T00:02:03.121Z,19.3
2022-08-02T00:03:03.572Z,19.32
2022-08-02T00:04:04.467Z,19.29
2022-08-02T00:05:05.550Z,19.35
2022-08-02T00:06:05.769Z,19.24
2022-08-02T00:07:07.097Z,19.3
2022-08-02T00:08:06.741Z,19.32
2022-08-02T00:09:07.243Z,19.29
2022-08-02T00:10:07.357Z,19.23
2022-08-02T00:11:07.873Z,19.19
2022-08-02T00:12:08.973Z,19.2
2022-08-02T00:13:09.412Z,19.19
2022-08-02T00:14:09.906Z,19.16
2022-08-02T00:15:15.850Z,19.12
2022-08-02T00:16:17.168Z,19.16
2022-08-02T00:17:11.425Z,19.05
2022-08-02T00:18:12.072Z,19.01
2022-08-02T00:19:12.572Z,19
2022-08-02T00:20:12.488Z,18.98
2022-08-02T00:21:14.650Z,19.09
2022-08-02T00:22:14.872Z,19.05
2022-08-02T00:23:14.994Z,19.01
2022-08-02T00:24:35.947Z,19.04
2022-08-02T00:25:23.387Z,19.04
2022-08-02T00:26:24.591Z,18.98
2022-08-02T00:27:25.090Z,18.97
2022-08-02T00:28:33.011Z,19.09
2022-08-02T00:29:26.924Z,19.04
2022-08-02T00:30:27.340Z,18.91
2022-08-02T00:31:27.540Z,18.89
2022-08-02T00:32:28.156Z,18.74
2022-08-02T00:34:38.235Z,18.76
2022-08-02T00:34:55.188Z,18.82
2022-08-02T00:35:55.699Z,18.76
2022-08-02T00:36:55.896Z,18.66
2022-08-02T00:37:56.119Z,18.57
2022-08-02T00:38:56.505Z,18.55
2022-08-02T00:39:57.143Z,18.46
2022-08-02T00:41:02.482Z,18.49
2022-08-02T00:41:59.281Z,18.49
2022-08-02T00:42:58.460Z,18.41
2022-08-02T00:43:58.665Z,18.41
2022-08-02T00:44:58.985Z,18.51
2022-08-02T00:46:10.728Z,18.61
2022-08-02T00:47:10.348Z,18.6
2022-08-02T00:48:11.184Z,18.57
2022-08-02T00:49:15.120Z,18.67
2022-08-02T00:50:12.415Z,18.7
2022-08-02T00:51:12.315Z,18.76
2022-08-02T00:52:14.135Z,18.66
2022-08-02T00:53:14.157Z,18.78
2022-08-02T00:54:14.116Z,18.7
2022-08-02T00:55:30.766Z,18.74
2022-08-02T00:56:19.534Z,18.74
2022-08-02T00:57:19.732Z,18.78
2022-08-02T00:58:20.219Z,18.76
2022-08-02T00:59:20.910Z,18.78
2022-08-02T01:00:21.805Z,18.74
2022-08-02T01:01:22.031Z,18.78
2022-08-02T01:02:23.229Z,18.78
2022-08-02T01:03:22.459Z,18.73
2022-08-02T01:04:35.965Z,18.67
2022-08-02T01:05:24.157Z,18.67
2022-08-02T01:06:39.555Z,18.73
2022-08-02T01:07:40.045Z,18.68
2022-08-02T01:08:40.990Z,18.66
2022-08-02T01:09:41.995Z,18.71
2022-08-02T01:10:41.910Z,18.66
2022-08-02T01:11:42.773Z,18.67
2022-08-02T01:12:42.976Z,18.66
2022-08-02T01:13:43.873Z,18.66
2022-08-02T01:14:44.804Z,18.66
2022-08-02T01:15:45.006Z,18.57
2022-08-02T01:16:47.308Z,18.66
2022-08-02T01:17:45.439Z,18.58
2022-08-02T01:18:46.360Z,18.7
2022-08-02T01:19:47.286Z,18.64
2022-08-02T01:20:47.790Z,18.58
2022-08-02T01:21:48.026Z,18.6
2022-08-02T01:23:07.631Z,18.61
2022-08-02T01:23:52.202Z,18.49
2022-08-02T01:24:50.736Z,18.46
2022-08-02T01:25:51.932Z,18.45
2022-08-02T01:26:52.494Z,18.49
2022-08-02T01:27:53.415Z,18.51
2022-08-02T01:28:54.128Z,18.51
2022-08-02T01:29:54.539Z,18.51
2022-08-02T01:30:57.470Z,18.52
2022-08-02T01:31:55.094Z,18.51
2022-08-02T01:32:55.509Z,18.53
2022-08-02T01:33:55.699Z,18.53
2022-08-02T01:34:56.622Z,18.53
2022-08-02T01:35:57.816Z,18.58
2022-08-02T01:36:58.112Z,18.57
2022-08-02T01:37:58.424Z,18.63
2022-08-02T01:38:59.616Z,18.6
2022-08-02T01:40:00.152Z,18.64
2022-08-02T01:41:00.802Z,18.6
2022-08-02T01:42:14.880Z,18.6
2022-08-02T01:43:05.123Z,18.68
2022-08-02T01:44:03.056Z,18.55
2022-08-02T01:45:03.277Z,18.68
2022-08-02T01:46:03.178Z,18.68
2022-08-02T01:47:03.317Z,18.79
2022-08-02T01:48:03.243Z,18.73
2022-08-02T01:49:09.926Z,18.73
2022-08-02T01:50:05.285Z,18.7
2022-08-02T01:51:05.204Z,18.73
2022-08-02T01:52:05.423Z,18.71
2022-08-02T01:53:06.326Z,18.78
2022-08-02T01:54:06.271Z,18.73
2022-08-02T01:55:18.854Z,18.76
2022-08-02T01:56:07.941Z,18.76
2022-08-02T01:57:08.797Z,18.76
2022-08-02T01:58:09.999Z,18.79
2022-08-02T01:59:09.903Z,18.81
2022-08-02T02:00:11.107Z,18.81
2022-08-02T02:01:19.028Z,18.79
2022-08-02T02:02:13.270Z,18.82
2022-08-02T02:03:13.341Z,18.91
2022-08-02T02:04:13.840Z,18.88
2022-08-02T02:05:14.039Z,18.88
2022-08-02T02:06:14.264Z,18.89
2022-08-02T02:07:14.944Z,18.86
2022-08-02T02:08:27.897Z,18.94
2022-08-02T02:09:16.146Z,18.91
2022-08-02T02:10:16.358Z,18.88
2022-08-02T02:12:19.291Z,18.88
2022-08-02T02:12:36.838Z,19.04
2022-08-02T02:13:39.888Z,18.94
2022-08-02T02:14:38.101Z,18.97
2022-08-02T02:15:41.329Z,19
2022-08-02T02:16:39.864Z,18.96
2022-08-02T02:18:20.444Z,18.97
2022-08-02T02:19:26.823Z,19.04
2022-08-02T02:20:21.727Z,18.96
2022-08-02T02:21:21.648Z,19.07
2022-08-02T02:22:24.761Z,19.15
2022-08-02T02:23:26.242Z,19.05
2022-08-02T02:24:23.211Z,18.98
2022-08-02T02:25:41.679Z,19.04
2022-08-02T02:26:37.196Z,19.05
2022-08-02T02:27:25.680Z,18.96
2022-08-02T02:28:26.551Z,19.05
2022-08-02T02:29:27.042Z,18.94
2022-08-02T02:30:27.269Z,18.97
2022-08-02T02:31:27.486Z,18.97
2022-08-02T02:32:28.408Z,18.97
2022-08-02T02:33:34.923Z,19.01
2022-08-02T02:34:30.539Z,18.98
2022-08-02T02:35:30.862Z,18.94
2022-08-02T02:36:31.146Z,19
2022-08-02T02:37:31.766Z,18.94
2022-08-02T02:38:32.772Z,19.04
2022-08-02T02:39:33.121Z,18.96
2022-08-02T02:40:34.320Z,18.94
2022-08-02T02:41:34.977Z,19.04
2022-08-02T02:42:35.171Z,19
2022-08-02T02:43:35.669Z,18.86
2022-08-02T02:44:36.572Z,18.91
2022-08-02T02:45:37.767Z,18.88
2022-08-02T02:46:38.030Z,18.91
2022-08-02T02:47:47.373Z,18.91
2022-08-02T02:48:39.084Z,18.92
2022-08-02T02:49:40.533Z,18.94
2022-08-02T02:50:40.732Z,18.97
2022-08-02T02:51:41.652Z,18.86
2022-08-02T02:52:41.573Z,18.89
2022-08-02T02:54:40.211Z,18.96
2022-08-02T02:54:57.133Z,18.98
2022-08-02T02:56:08.435Z,19.07
2022-08-02T02:56:58.652Z,19
2022-08-02T02:57:58.859Z,18.94
2022-08-02T02:58:59.286Z,18.91
2022-08-02T02:59:59.484Z,18.94
2022-08-02T03:01:00.896Z,18.97
2022-08-02T03:02:03.889Z,19.04
2022-08-02T03:03:01.422Z,18.97
2022-08-02T03:04:02.355Z,18.98
2022-08-02T03:05:03.983Z,18.98
2022-08-02T03:06:16.142Z,19.04
2022-08-02T03:07:04.471Z,18.97
2022-08-02T03:08:04.427Z,18.97
2022-08-02T03:09:05.396Z,19.01
2022-08-02T03:10:06.375Z,19.12
2022-08-02T03:11:10.134Z,18.97
2022-08-02T03:12:07.335Z,19.07
2022-08-02T03:13:08.176Z,19.04
2022-08-02T03:14:08.366Z,18.96
2022-08-02T03:15:08.861Z,19
2022-08-02T03:16:09.062Z,19
2022-08-02T03:17:09.254Z,19.01
2022-08-02T03:18:10.154Z,19
2022-08-02T03:19:10.792Z,19.01
2022-08-02T03:20:10.997Z,18.98
2022-08-02T03:21:10.918Z,19
2022-08-02T03:22:12.127Z,19.07
2022-08-02T03:23:13.121Z,18.98
2022-08-02T03:24:13.042Z,18.97
2022-08-02T03:25:14.053Z,19.05
2022-08-02T03:26:14.954Z,18.97
2022-08-02T03:27:15.171Z,18.96
2022-08-02T03:28:15.365Z,18.98
2022-08-02T03:29:17.154Z,18.98
2022-08-02T03:30:16.505Z,18.96
2022-08-02T03:31:17.428Z,18.98
2022-08-02T03:32:18.448Z,18.96
2022-08-02T03:33:18.067Z,18.91
2022-08-02T03:34:18.692Z,18.97
2022-08-02T03:35:24.673Z,19.05
2022-08-02T03:36:20.886Z,19.04
2022-08-02T03:37:21.797Z,18.94
2022-08-02T03:38:21.691Z,18.97
2022-08-02T03:39:22.297Z,18.92
2022-08-02T03:40:22.219Z,18.91
2022-08-02T03:41:23.150Z,18.92
2022-08-02T03:42:23.050Z,18.96
2022-08-02T03:43:29.047Z,19.04
2022-08-02T03:44:24.671Z,19.04
2022-08-02T03:45:25.949Z,18.91
2022-08-02T03:46:26.165Z,18.88
2022-08-02T03:47:26.652Z,18.89
2022-08-02T03:48:40.828Z,18.89
2022-08-02T03:49:28.985Z,18.92
2022-08-02T03:50:30.137Z,18.88
2022-08-02T03:51:30.629Z,18.85
2022-08-02T03:52:31.539Z,18.96
2022-08-02T03:53:32.461Z,18.92
2022-08-02T03:54:46.133Z,18.89
2022-08-02T03:55:33.656Z,18.91
2022-08-02T03:56:33.576Z,18.91
2022-08-02T03:57:34.070Z,18.86
2022-08-02T03:58:34.274Z,18.85
2022-08-02T03:59:41.059Z,18.85
2022-08-02T04:00:36.410Z,18.89
2022-08-02T04:01:36.678Z,18.91
2022-08-02T04:02:37.315Z,18.82
2022-08-02T04:03:37.804Z,18.85
2022-08-02T04:04:38.030Z,18.85
2022-08-02T04:06:04.925Z,18.83
2022-08-02T04:06:41.623Z,18.89
2022-08-02T04:08:41.302Z,18.89
2022-08-02T04:08:58.793Z,18.83
2022-08-02T04:09:59.876Z,18.92
2022-08-02T04:11:00.267Z,18.92
2022-08-02T04:12:01.208Z,18.88
2022-08-02T04:13:02.215Z,18.86
2022-08-02T04:14:02.858Z,18.91
2022-08-02T04:15:03.666Z,18.74
2022-08-02T04:16:03.886Z,18.71
2022-08-02T04:17:04.386Z,18.79
2022-08-02T04:18:04.608Z,18.76
2022-08-02T04:19:05.526Z,18.76
2022-08-02T04:20:06.162Z,18.76
2022-08-02T04:21:06.385Z,18.74
2022-08-02T04:22:06.307Z,18.76
2022-08-02T04:23:06.692Z,18.73
2022-08-02T04:24:11.581Z,18.68
2022-08-02T04:25:10.001Z,18.74
2022-08-02T04:26:11.463Z,18.67
2022-08-02T04:28:18.829Z,18.71
2022-08-02T04:28:44.742Z,18.76
2022-08-02T04:29:48.614Z,18.71
2022-08-02T04:30:45.921Z,18.7
2022-08-02T04:31:47.479Z,18.68
2022-08-02T04:32:46.972Z,18.66
2022-08-02T04:33:47.193Z,18.71
2022-08-02T04:35:20.302Z,18.66
2022-08-02T04:35:48.179Z,18.63
2022-08-02T04:36:48.862Z,18.68
2022-08-02T04:38:14.852Z,18.63
2022-08-02T04:38:50.188Z,18.57
2022-08-02T04:39:51.685Z,18.6
2022-08-02T04:40:52.434Z,18.57
2022-08-02T04:41:58.081Z,18.67
2022-08-02T04:42:54.143Z,18.6
2022-08-02T04:43:55.340Z,18.6
2022-08-02T04:44:56.010Z,18.6
2022-08-02T04:45:56.510Z,18.61
2022-08-02T04:46:57.159Z,18.61
2022-08-02T04:48:09.503Z,18.63
2022-08-02T04:48:58.864Z,18.58
2022-08-02T04:49:59.650Z,18.6
2022-08-02T04:51:00.386Z,18.52
2022-08-02T04:52:00.593Z,18.6
2022-08-02T04:53:01.242Z,18.53
2022-08-02T04:54:12.169Z,18.63
2022-08-02T04:55:02.674Z,18.57
2022-08-02T04:56:03.179Z,18.58
2022-08-02T04:57:03.679Z,18.6
2022-08-02T04:58:39.771Z,18.67
2022-08-02T04:59:04.523Z,18.68
2022-08-02T05:00:05.244Z,18.66
2022-08-02T05:01:06.191Z,18.67
2022-08-02T05:02:06.071Z,18.68
2022-08-02T05:03:07.167Z,18.68
2022-08-02T05:04:07.810Z,18.79
2022-08-02T05:05:15.488Z,18.79
2022-08-02T05:06:24.644Z,18.79
2022-08-02T05:07:10.135Z,18.67
2022-08-02T05:08:10.059Z,18.79
2022-08-02T05:09:11.267Z,18.79
2022-08-02T05:10:11.512Z,18.79
2022-08-02T05:11:14.370Z,18.91
2022-08-02T05:12:14.282Z,18.91
2022-08-02T05:13:13.003Z,18.89
2022-08-02T05:14:14.229Z,18.86
2022-08-02T05:15:18.249Z,18.86
2022-08-02T05:16:15.241Z,18.85
2022-08-02T05:17:15.633Z,18.85
2022-08-02T05:18:17.966Z,18.91
2022-08-02T05:19:16.893Z,18.94
2022-08-02T05:20:18.109Z,19.01
2022-08-02T05:21:18.820Z,18.92
2022-08-02T05:22:19.864Z,18.96
2022-08-02T05:23:19.761Z,19
2022-08-02T05:24:20.688Z,18.96
2022-08-02T05:25:20.888Z,18.96
2022-08-02T05:26:20.806Z,18.96
2022-08-02T05:27:27.608Z,18.98
2022-08-02T05:28:25.168Z,18.94
2022-08-02T05:29:23.401Z,18.98
2022-08-02T05:30:24.610Z,18.96
2022-08-02T05:31:25.421Z,19.04
2022-08-02T05:32:26.519Z,19.07
2022-08-02T05:33:26.123Z,19.08
2022-08-02T05:34:27.047Z,19.08
2022-08-02T05:35:26.675Z,19.17
2022-08-02T05:36:28.347Z,19.23
2022-08-02T05:37:33.150Z,19.27
2022-08-02T05:38:32.428Z,19.22
2022-08-02T05:39:32.035Z,19.2
2022-08-02T05:40:31.876Z,19.32
2022-08-02T05:41:37.113Z,19.37
2022-08-02T05:42:37.011Z,19.32
2022-08-02T05:43:37.360Z,19.41
2022-08-02T05:44:39.184Z,19.44
2022-08-02T05:45:38.535Z,19.44
2022-08-02T05:46:39.041Z,19.45
2022-08-02T05:47:39.847Z,19.48
2022-08-02T05:48:39.770Z,19.57
2022-08-02T05:49:40.635Z,19.48
2022-08-02T05:50:41.157Z,19.55
2022-08-02T05:51:41.882Z,19.63
2022-08-02T05:52:45.541Z,19.63
2022-08-02T05:53:42.660Z,19.63
2022-08-02T05:54:45.527Z,19.62
2022-08-02T05:55:44.736Z,19.75
2022-08-02T05:56:45.237Z,19.75
2022-08-02T05:57:49.119Z,19.78
2022-08-02T05:58:46.068Z,19.74
2022-08-02T05:59:46.802Z,19.84
2022-08-02T06:00:47.033Z,19.78
2022-08-02T06:01:47.750Z,19.81
2022-08-02T06:02:48.176Z,19.87
2022-08-02T06:03:48.389Z,19.82
2022-08-02T06:04:49.012Z,19.85
2022-08-02T06:05:49.927Z,19.85
2022-08-02T06:06:50.554Z,19.9
2022-08-02T06:07:51.527Z,19.99
2022-08-02T06:08:54.139Z,19.99
2022-08-02T06:09:53.775Z,20.08
2022-08-02T06:10:54.419Z,20.02
2022-08-02T06:12:08.413Z,20.08
2022-08-02T06:12:56.061Z,20.15
2022-08-02T06:13:56.690Z,20.24
2022-08-02T06:15:00.176Z,20.32
2022-08-02T06:15:59.511Z,20.27
2022-08-02T06:16:59.878Z,20.37
2022-08-02T06:17:58.451Z,20.42
2022-08-02T06:18:58.669Z,20.55
2022-08-02T06:19:59.322Z,20.49
2022-08-02T06:22:36.881Z,20.5
2022-08-02T06:23:29.507Z,20.55
2022-08-02T06:24:28.085Z,20.52
2022-08-02T06:25:56.235Z,20.66
2022-08-02T06:26:28.772Z,20.63
2022-08-02T06:27:28.974Z,20.63
2022-08-02T06:28:29.902Z,20.6
2022-08-02T06:29:30.401Z,20.67
2022-08-02T06:30:30.744Z,20.73
2022-08-02T06:31:30.915Z,20.71
2022-08-02T06:32:31.534Z,20.83
2022-08-02T06:33:31.836Z,20.82
2022-08-02T06:34:32.335Z,20.78
2022-08-02T06:35:32.271Z,20.78
2022-08-02T06:36:33.205Z,20.77
2022-08-02T06:37:34.215Z,20.88
2022-08-02T06:38:34.120Z,20.8
2022-08-02T06:39:34.708Z,20.86
2022-08-02T06:40:34.907Z,20.9
2022-08-02T06:41:35.813Z,20.92
2022-08-02T06:42:36.736Z,21.05
2022-08-02T06:43:39.775Z,21.01
2022-08-02T06:44:59.096Z,21.05
2022-08-02T06:45:39.000Z,21.14
2022-08-02T06:47:17.280Z,21.32
2022-08-02T06:47:40.908Z,21.29
2022-08-02T06:48:41.834Z,21.3
2022-08-02T06:49:59.262Z,21.37
2022-08-02T06:50:42.890Z,21.5
2022-08-02T06:51:43.094Z,21.43
2022-08-02T06:52:43.002Z,21.56
2022-08-02T06:53:44.024Z,21.53
2022-08-02T06:54:44.101Z,21.56
2022-08-02T06:55:49.732Z,21.63
2022-08-02T06:56:45.964Z,21.69
2022-08-02T06:57:46.470Z,21.69
2022-08-02T06:58:46.557Z,21.65
2022-08-02T06:59:47.212Z,21.69
2022-08-02T07:00:48.140Z,21.75
2022-08-02T07:01:48.910Z,21.84
2022-08-02T07:02:49.031Z,21.84
2022-08-02T07:03:50.063Z,21.85
2022-08-02T07:04:50.442Z,21.96
2022-08-02T07:05:50.673Z,21.99
2022-08-02T07:06:50.875Z,22.07
2022-08-02T07:07:51.378Z,22.04
2022-08-02T07:09:22.244Z,22.14
2022-08-02T07:10:06.439Z,22.18
2022-08-02T07:10:53.393Z,22.16
2022-08-02T07:11:54.396Z,22.07
2022-08-02T07:13:00.178Z,22.12
2022-08-02T07:13:55.522Z,22.28
2022-08-02T07:14:56.734Z,22.23
2022-08-02T07:15:57.012Z,22.4
2022-08-02T07:16:58.535Z,22.51
2022-08-02T07:17:58.543Z,22.53
2022-08-02T07:18:59.309Z,22.52
2022-08-02T07:20:00.238Z,22.59
2022-08-02T07:21:01.182Z,22.55
2022-08-02T07:22:02.638Z,22.55
2022-08-02T07:23:01.929Z,22.63
2022-08-02T07:24:02.939Z,22.67
2022-08-02T07:25:02.872Z,22.77
2022-08-02T07:26:07.693Z,22.7
2022-08-02T07:27:19.202Z,22.76
2022-08-02T07:28:07.001Z,22.83
2022-08-02T07:29:05.482Z,22.81
2022-08-02T07:30:06.386Z,22.96
2022-08-02T07:31:08.542Z,22.98
2022-08-02T07:32:07.172Z,22.96
2022-08-02T07:33:08.353Z,22.96
2022-08-02T07:36:22.575Z,23.1
2022-08-02T07:38:02.158Z,23.16
2022-08-02T07:38:21.141Z,23.16
2022-08-02T07:39:21.391Z,23.33
2022-08-02T07:40:26.275Z,23.37
2022-08-02T07:41:23.073Z,23.44
2022-08-02T07:43:23.066Z,23.47
2022-08-02T07:44:25.238Z,23.56
2022-08-02T07:45:24.440Z,23.67
2022-08-02T07:46:25.331Z,23.62
2022-08-02T07:47:26.674Z,23.64
2022-08-02T07:49:28.093Z,23.67
2022-08-02T07:50:28.733Z,23.71
2022-08-02T07:51:31.314Z,23.59
2022-08-02T07:52:29.962Z,23.63
2022-08-02T07:54:05.370Z,23.76
2022-08-02T07:54:30.677Z,23.76
2022-08-02T07:55:45.569Z,23.81
2022-08-02T07:56:32.506Z,23.82
2022-08-02T07:57:33.612Z,23.88
2022-08-02T07:58:34.314Z,23.84
2022-08-02T07:59:34.966Z,23.88
2022-08-02T08:00:35.684Z,23.77
2022-08-02T08:01:40.504Z,23.77
2022-08-02T08:02:36.755Z,23.74
2022-08-02T08:03:37.158Z,23.77
2022-08-02T08:04:37.920Z,23.84
2022-08-02T08:11:42.305Z,23.95
2022-08-02T08:12:43.517Z,23.95
2022-08-02T08:13:44.489Z,23.89
2022-08-02T08:14:44.451Z,23.94
2022-08-02T08:15:52.708Z,24.06
2022-08-02T08:16:46.784Z,24.14
2022-08-02T08:17:46.583Z,24.13
2022-08-02T08:18:47.035Z,24.25
2022-08-02T08:19:57.794Z,24.28
2022-08-02T08:20:48.057Z,24.43
2022-08-02T08:21:48.852Z,24.43
2022-08-02T08:22:49.498Z,24.46
2022-08-02T08:23:50.036Z,24.43
2022-08-02T08:24:50.255Z,24.31
2022-08-02T08:25:50.963Z,24.31
2022-08-02T08:26:51.938Z,24.32
2022-08-02T08:27:51.686Z,24.31
2022-08-02T08:28:51.914Z,24.22
2022-08-02T08:29:52.370Z,24.11
2022-08-02T08:30:52.676Z,24.03
2022-08-02T08:31:52.884Z,24.06
2022-08-02T08:32:54.184Z,24.01
2022-08-02T08:33:54.418Z,24.06
2022-08-02T08:34:54.335Z,24.03
2022-08-02T08:35:55.418Z,24.1
2022-08-02T08:36:55.171Z,24.13
2022-08-02T08:37:55.971Z,24.24
2022-08-02T08:38:56.790Z,24.29
2022-08-02T08:40:03.715Z,24.41
2022-08-02T08:40:58.129Z,24.46
2022-08-02T08:41:58.653Z,24.59
2022-08-02T08:42:59.411Z,24.58
2022-08-02T08:43:59.641Z,24.63
2022-08-02T08:44:59.968Z,24.63
2022-08-02T08:46:02.005Z,24.56
2022-08-02T08:47:01.006Z,24.62
2022-08-02T08:48:02.322Z,24.61
2022-08-02T08:49:02.481Z,24.59
2022-08-02T08:50:02.594Z,24.58
2022-08-02T08:51:02.741Z,24.65
2022-08-02T08:52:04.250Z,24.61
2022-08-02T08:53:04.298Z,24.65
2022-08-02T08:54:04.529Z,24.68
2022-08-02T08:55:05.310Z,24.69
2022-08-02T08:56:14.153Z,24.84
2022-08-02T08:57:06.602Z,24.97
2022-08-02T08:58:08.049Z,25.11
2022-08-02T08:59:07.260Z,24.97
2022-08-02T09:00:07.472Z,25.07
2022-08-02T09:01:08.335Z,24.99
2022-08-02T09:02:29.163Z,25.09
2022-08-02T09:06:11.535Z,25.41
2022-08-02T09:07:15.841Z,25.55
2022-08-02T09:08:17.277Z,25.7
2022-08-02T09:09:13.660Z,25.86
2022-08-02T09:10:14.867Z,25.89
2022-08-02T09:11:15.821Z,25.95
2022-08-02T09:12:16.560Z,26.03
2022-08-02T09:13:50.961Z,26.06
2022-08-02T09:14:17.189Z,26.06
2022-08-02T09:15:21.992Z,26.08
2022-08-02T09:16:20.350Z,26.04
2022-08-02T09:17:22.562Z,26.04
2022-08-02T09:18:20.290Z,26.11
2022-08-02T09:19:21.259Z,26.3
2022-08-02T09:20:21.492Z,26.34
2022-08-02T09:21:22.967Z,26.55
2022-08-02T09:22:23.197Z,26.71
2022-08-02T09:23:24.427Z,26.93
2022-08-02T09:24:24.661Z,27.26
2022-08-02T09:25:25.453Z,27.6
2022-08-02T09:26:25.926Z,27.85
2022-08-02T09:27:26.436Z,28.22
2022-08-02T09:28:26.443Z,28.43
2022-08-02T09:29:27.391Z,28.78
2022-08-02T09:30:28.299Z,29.07
2022-08-02T09:31:28.941Z,29.37
2022-08-02T09:32:29.274Z,29.67
2022-08-02T09:33:29.546Z,29.92
2022-08-02T09:34:30.062Z,30.1
2022-08-02T09:36:07.983Z,30.21
2022-08-02T09:36:33.998Z,30.23
2022-08-02T09:37:32.595Z,30.27
2022-08-02T09:38:33.516Z,30.14
2022-08-02T09:39:33.806Z,29.98
2022-08-02T09:40:35.159Z,29.96
2022-08-02T09:41:34.598Z,29.9
2022-08-02T09:42:36.793Z,29.67
2022-08-02T09:43:36.048Z,29.55
2022-08-02T09:44:37.052Z,29.68
2022-08-02T09:45:38.090Z,29.87
2022-08-02T09:46:39.478Z,30.02
2022-08-02T09:47:43.503Z,30.14
2022-08-02T09:48:40.531Z,30.21
2022-08-02T09:49:40.863Z,30.18
2022-08-02T09:50:41.352Z,30.31
2022-08-02T09:51:42.416Z,30.51
2022-08-02T09:52:49.537Z,30.76
2022-08-02T09:53:44.526Z,30.88
2022-08-02T09:54:45.749Z,31.02
2022-08-02T09:55:46.264Z,31.23
2022-08-02T09:56:46.225Z,31.5
2022-08-02T09:57:51.841Z,31.59
2022-08-02T09:58:47.642Z,31.69
2022-08-02T09:59:47.880Z,31.79
2022-08-02T10:00:58.620Z,32.01
2022-08-02T10:02:19.783Z,32.08
2022-08-02T10:02:49.698Z,32.12
2022-08-02T10:03:51.098Z,32.17
2022-08-02T10:05:00.493Z,32.27
2022-08-02T10:06:03.480Z,32.22
2022-08-02T10:06:52.715Z,31.9
2022-08-02T10:07:53.557Z,31.64
2022-08-02T10:08:54.296Z,31.52
2022-08-02T10:09:54.543Z,31.37
2022-08-02T10:10:55.473Z,31.39
2022-08-02T10:11:56.160Z,31.44
2022-08-02T10:12:57.108Z,31.51
2022-08-02T10:13:57.058Z,31.52
2022-08-02T10:14:57.284Z,31.57
2022-08-02T10:15:58.205Z,31.59
2022-08-02T10:16:58.868Z,31.64
2022-08-02T10:17:59.738Z,31.73
2022-08-02T10:20:04.444Z,32.01
2022-08-02T10:20:22.446Z,32.07
2022-08-02T10:21:23.121Z,32.12
2022-08-02T10:22:26.022Z,32.29
2022-08-02T10:23:24.640Z,32.3
2022-08-02T10:24:25.551Z,32.3
2022-08-02T10:25:26.492Z,32.26
2022-08-02T10:26:26.707Z,32.41
2022-08-02T10:27:28.205Z,32.51
2022-08-02T10:28:27.072Z,32.63
2022-08-02T10:29:53.356Z,32.68
2022-08-02T10:30:28.772Z,32.78
2022-08-02T10:31:28.993Z,32.86
2022-08-02T10:32:29.945Z,32.93
2022-08-02T10:33:31.183Z,32.93
2022-08-02T10:34:38.972Z,33.05
2022-08-02T10:35:32.694Z,32.97
2022-08-02T10:36:32.632Z,32.85
2022-08-02T10:37:33.849Z,32.73
2022-08-02T10:38:34.361Z,32.66
2022-08-02T10:39:35.083Z,32.76
2022-08-02T10:40:36.001Z,32.82
2022-08-02T10:41:36.815Z,32.88
2022-08-02T10:42:36.149Z,32.95
2022-08-02T10:43:36.406Z,33
2022-08-02T10:44:37.065Z,32.97
2022-08-02T10:45:39.535Z,32.94
2022-08-02T10:46:38.418Z,32.88
2022-08-02T10:47:39.186Z,32.95
2022-08-02T10:48:39.742Z,32.9
2022-08-02T10:49:57.796Z,32.94
2022-08-02T10:50:57.579Z,32.86
2022-08-02T10:51:58.526Z,32.88
2022-08-02T10:52:59.877Z,32.86
2022-08-02T10:54:00.796Z,32.9
2022-08-02T10:55:02.439Z,32.85
2022-08-02T10:56:02.220Z,32.64
2022-08-02T10:57:06.856Z,32.71
2022-08-02T10:58:03.673Z,32.68
2022-08-02T10:59:05.321Z,32.73
2022-08-02T11:00:06.048Z,32.85
2022-08-02T11:01:07.687Z,32.82
2022-08-02T11:02:07.568Z,32.85
2022-08-02T11:03:07.544Z,32.76
2022-08-02T11:04:12.715Z,32.79
2022-08-02T11:05:08.679Z,32.83
2022-08-02T11:06:08.616Z,32.85
2022-08-02T11:07:08.785Z,32.95
2022-08-02T11:08:09.328Z,32.95
2022-08-02T11:09:10.137Z,32.95
2022-08-02T11:10:09.852Z,32.88
2022-08-02T11:11:10.781Z,32.83
2022-08-02T11:12:11.822Z,32.82
2022-08-02T11:13:12.176Z,32.79
2022-08-02T11:14:12.543Z,32.88
2022-08-02T11:15:14.096Z,32.67
2022-08-02T11:16:17.794Z,32.66
2022-08-02T11:17:15.308Z,32.64
2022-08-02T11:18:15.778Z,32.6
2022-08-02T11:19:15.727Z,32.56
2022-08-02T11:20:16.312Z,32.54
2022-08-02T11:21:16.546Z,32.45
2022-08-02T11:22:23.798Z,32.38
2022-08-02T11:23:18.162Z,32.17
2022-08-02T11:24:19.154Z,32.02
2022-08-02T11:25:20.397Z,31.77
2022-08-02T11:26:21.093Z,31.7
2022-08-02T11:27:22.839Z,31.81
2022-08-02T11:28:26.001Z,31.89
2022-08-02T11:29:23.422Z,31.79
2022-08-02T11:30:27.618Z,32.01
2022-08-02T11:31:25.038Z,32.08
2022-08-02T11:32:31.651Z,32.27
2022-08-02T11:33:26.591Z,32.34
2022-08-02T11:34:43.906Z,32.44
2022-08-02T11:35:28.123Z,32.41
2022-08-02T11:36:29.069Z,32.27
2022-08-02T11:37:29.813Z,32.12
2022-08-02T11:38:30.333Z,32.01
2022-08-02T11:39:30.307Z,32.05
2022-08-02T11:42:34.745Z,32.08
2022-08-02T11:43:35.035Z,32.09
2022-08-02T11:44:34.681Z,32
2022-08-02T11:45:36.417Z,32.07
2022-08-02T11:46:36.460Z,31.86
2022-08-02T11:47:36.671Z,31.5
2022-08-02T11:48:37.188Z,31.02
2022-08-02T11:49:38.503Z,30.83
2022-08-02T11:50:38.309Z,30.8
2022-08-02T11:51:42.644Z,30.76
2022-08-02T11:52:39.445Z,30.74
2022-08-02T11:53:39.997Z,30.92
2022-08-02T11:54:41.333Z,30.86
2022-08-02T11:55:41.561Z,30.76
2022-08-02T11:56:42.510Z,30.52
2022-08-02T11:58:09.549Z,30.14
2022-08-02T11:58:47.729Z,30.14
2022-08-02T11:59:44.685Z,29.95
2022-08-02T12:00:45.610Z,29.96
2022-08-02T12:01:52.116Z,29.87
2022-08-02T12:02:47.131Z,29.92
2022-08-02T12:03:48.381Z,30.02
2022-08-02T12:04:50.108Z,29.95
2022-08-02T12:06:17.269Z,29.69
2022-08-02T12:06:50.062Z,29.71
2022-08-02T12:07:52.223Z,29.55
2022-08-02T12:09:00.433Z,29.61
2022-08-02T12:09:51.781Z,29.68
2022-08-02T12:10:52.299Z,29.61
2022-08-02T12:11:52.238Z,29.74
2022-08-02T12:12:54.972Z,29.92
2022-08-02T12:14:02.869Z,29.98
2022-08-02T12:14:54.525Z,29.98
2022-08-02T12:15:55.460Z,29.9
2022-08-02T12:16:56.174Z,29.87
2022-08-02T12:17:57.105Z,29.89
2022-08-02T12:18:57.056Z,29.96
2022-08-02T12:19:57.996Z,30.01
2022-08-02T12:20:58.295Z,29.95
2022-08-02T12:21:58.528Z,29.74
2022-08-02T12:22:58.706Z,29.59
2022-08-02T12:24:08.214Z,29.74
2022-08-02T12:25:13.521Z,29.64
2022-08-02T12:26:08.570Z,29.74
2022-08-02T12:27:09.614Z,29.74
2022-08-02T12:28:17.479Z,29.74
2022-08-02T12:29:13.457Z,29.81
2022-08-02T12:30:11.219Z,29.84
2022-08-02T12:31:11.966Z,29.96
2022-08-02T12:32:13.374Z,30.05
2022-08-02T12:33:18.674Z,30.16
2022-08-02T12:34:13.699Z,30.32
2022-08-02T12:35:13.993Z,30.44
2022-08-02T12:36:19.452Z,30.63
2022-08-02T12:37:15.688Z,30.85
2022-08-02T12:38:15.634Z,31.05
2022-08-02T12:39:16.610Z,31.17
2022-08-02T12:40:16.743Z,31.29
2022-08-02T12:41:54.292Z,31.48
2022-08-02T12:42:17.722Z,31.45
2022-08-02T12:43:18.634Z,31.63
2022-08-02T12:44:20.428Z,31.59
2022-08-02T12:45:19.357Z,31.72
2022-08-02T12:46:20.445Z,31.79
2022-08-02T12:47:22.132Z,32.01
2022-08-02T12:48:21.683Z,32.16
2022-08-02T12:49:24.598Z,32.26
2022-08-02T12:50:22.661Z,32.2
2022-08-02T12:51:23.601Z,32
2022-08-02T12:52:24.186Z,31.74
2022-08-02T12:53:25.399Z,31.42
2022-08-02T12:54:33.123Z,31.41
2022-08-02T12:56:03.211Z,31.15
2022-08-02T12:56:26.963Z,30.99
2022-08-02T12:57:27.484Z,30.81
2022-08-02T12:58:27.921Z,30.71
2022-08-02T12:59:39.565Z,30.52
2022-08-02T13:00:28.642Z,30.52
2022-08-02T13:01:28.834Z,30.58
2022-08-02T13:02:29.095Z,30.81
2022-08-02T13:04:17.652Z,31.1
2022-08-02T13:05:06.598Z,31.23
2022-08-02T13:06:44.705Z,31.5
2022-08-02T13:07:07.352Z,31.5
2022-08-02T13:08:07.995Z,31.72
2022-08-02T13:09:09.211Z,31.57
2022-08-02T13:10:09.843Z,31.51
2022-08-02T13:11:12.325Z,31.57
2022-08-02T13:12:11.688Z,31.45
2022-08-02T13:13:10.416Z,31.39
2022-08-02T13:14:11.932Z,31.37
2022-08-02T13:15:50.962Z,31.47
2022-08-02T13:16:13.256Z,31.51
2022-08-02T13:17:14.977Z,31.5
2022-08-02T13:18:14.914Z,31.57
2022-08-02T13:19:15.335Z,31.66
2022-08-02T13:20:17.306Z,31.67
2022-08-02T13:22:03.601Z,31.47
2022-08-02T13:22:29.175Z,31.47
2022-08-02T13:23:55.298Z,31.48
2022-08-02T13:24:57.247Z,31.44